createdAt,value
2019-04-11T00:00:40.055Z,10.27
2019-04-11T00:03:07.376Z,10.40
2019-04-11T00:05:35.075Z,10.87
2019-04-11T00:08:03.740Z,11.30
2019-04-11T00:10:31.347Z,11.37
2019-04-11T00:12:59.055Z,9.57
2019-04-11T00:15:26.668Z,10.93
2019-04-11T00:17:54.382Z,11.43
2019-04-11T00:20:22.193Z,12.97
2019-04-11T00:22:50.120Z,12.27
2019-04-11T00:25:18.449Z,11.13
2019-04-11T00:27:45.827Z,11.87
2019-04-11T00:30:13.240Z,12.30
2019-04-11T00:32:41.419Z,12.23
2019-04-11T00:35:09.233Z,12.20
2019-04-11T00:37:37.060Z,11.70
2019-04-11T00:40:05.854Z,11.13
2019-04-11T00:42:33.158Z,11.33
2019-04-11T00:45:00.518Z,11.47
2019-04-11T00:47:28.977Z,11.80
2019-04-11T00:49:56.836Z,13.27
2019-04-11T00:52:25.377Z,14.20
2019-04-11T00:54:53.216Z,13.57
2019-04-11T00:57:21.078Z,12.10
2019-04-11T00:59:48.823Z,12.20
2019-04-11T01:02:16.295Z,11.07
2019-04-11T01:04:45.268Z,13.27
2019-04-11T01:07:12.826Z,13.10
2019-04-11T01:09:40.311Z,11.60
2019-04-11T01:12:08.096Z,12.40
2019-04-11T01:14:37.216Z,11.23
2019-04-11T01:17:06.193Z,11.17
2019-04-11T01:19:33.663Z,12.60
2019-04-11T01:22:01.271Z,12.70
2019-04-11T01:24:28.820Z,12.97
2019-04-11T01:26:57.313Z,13.13
2019-04-11T01:29:25.197Z,12.47
2019-04-11T01:31:54.351Z,12.07
2019-04-11T01:34:21.788Z,11.63
2019-04-11T01:36:49.180Z,13.67
2019-04-11T01:39:33.490Z,14.87
2019-04-11T01:42:00.820Z,11.60
2019-04-11T01:44:28.386Z,11.73
2019-04-11T01:46:56.300Z,10.23
2019-04-11T01:49:24.594Z,11.20
2019-04-11T01:51:51.903Z,11.23
2019-04-11T01:54:19.572Z,11.27
2019-04-11T01:56:47.518Z,10.83
2019-04-11T01:59:15.322Z,10.03
2019-04-11T02:01:47.348Z,9.83
2019-04-11T02:04:22.258Z,11.47
2019-04-11T02:06:49.958Z,10.93
2019-04-11T02:09:17.470Z,10.93
2019-04-11T02:11:45.691Z,10.43
2019-04-11T02:14:16.419Z,11.23
2019-04-11T02:16:43.217Z,10.83
2019-04-11T02:19:10.695Z,11.53
2019-04-11T02:21:38.469Z,12.20
2019-04-11T02:24:07.841Z,12.97
2019-04-11T02:26:41.416Z,16.97
2019-04-11T02:29:09.377Z,21.17
2019-04-11T02:31:37.115Z,20.70
2019-04-11T02:34:06.556Z,16.33
2019-04-11T02:36:36.464Z,18.37
2019-04-11T02:39:11.775Z,21.17
2019-04-11T02:41:35.924Z,23.77
2019-04-11T02:44:05.736Z,18.03
2019-04-11T02:46:42.562Z,20.90
2019-04-11T02:49:03.186Z,24.33
2019-04-11T02:51:31.164Z,16.47
2019-04-11T02:53:59.040Z,17.90
2019-04-11T02:56:27.794Z,20.60
2019-04-11T02:58:56.520Z,22.13
2019-04-11T03:01:24.278Z,25.17
2019-04-11T03:03:53.713Z,25.33
2019-04-11T03:06:21.554Z,26.77
2019-04-11T03:08:49.424Z,25.50
2019-04-11T03:11:19.101Z,24.53
2019-04-11T03:13:50.343Z,22.90
2019-04-11T03:16:33.205Z,21.50
2019-04-11T03:19:06.535Z,18.83
2019-04-11T03:21:20.502Z,17.17
2019-04-11T03:23:46.663Z,14.23
2019-04-11T03:26:14.235Z,15.90
2019-04-11T03:28:45.127Z,13.10
2019-04-11T03:31:46.156Z,13.43
2019-04-11T03:34:39.732Z,12.87
2019-04-11T03:39:01.740Z,17.67
2019-04-11T03:41:25.375Z,18.30
2019-04-11T03:43:50.258Z,16.90
2019-04-11T03:46:26.574Z,15.83
2019-04-11T03:48:49.158Z,12.80
2019-04-11T03:51:04.497Z,13.40
2019-04-11T03:53:34.091Z,13.57
2019-04-11T03:56:01.592Z,13.83
2019-04-11T03:58:31.158Z,13.27
2019-04-11T04:01:03.278Z,12.90
2019-04-11T04:03:29.648Z,13.67
2019-04-11T04:05:57.363Z,13.50
2019-04-11T04:08:27.078Z,13.73
2019-04-11T04:11:15.274Z,13.70
2019-04-11T04:13:46.003Z,13.90
2019-04-11T04:16:26.049Z,17.73
2019-04-11T04:19:11.720Z,15.70
2019-04-11T04:21:53.093Z,18.60
2019-04-11T04:24:37.861Z,22.37
2019-04-11T04:27:04.237Z,16.53
2019-04-11T04:29:32.249Z,18.30
2019-04-11T04:32:00.578Z,19.27
2019-04-11T04:34:28.511Z,18.63
2019-04-11T04:36:57.728Z,22.63
2019-04-11T04:39:26.805Z,23.03
2019-04-11T04:42:01.132Z,19.07
2019-04-11T04:44:24.237Z,18.73
2019-04-11T04:47:00.111Z,24.37
2019-04-11T04:49:23.723Z,22.33
2019-04-11T04:51:53.171Z,24.57
2019-04-11T04:54:22.041Z,23.47
2019-04-11T04:56:50.355Z,21.57
2019-04-11T04:59:19.336Z,22.87
2019-04-11T05:01:48.254Z,22.10
2019-04-11T05:04:15.893Z,22.83
2019-04-11T05:06:46.797Z,18.30
2019-04-11T05:09:12.865Z,16.67
2019-04-11T05:11:40.377Z,18.40
2019-04-11T05:14:07.709Z,18.40
2019-04-11T05:16:35.766Z,17.13
2019-04-11T05:19:04.473Z,17.00
2019-04-11T05:21:32.994Z,20.90
2019-04-11T05:24:00.450Z,19.93
2019-04-11T05:26:27.949Z,19.63
2019-04-11T05:28:55.329Z,20.43
2019-04-11T05:31:22.736Z,22.97
2019-04-11T05:33:50.188Z,24.20
2019-04-11T05:36:18.686Z,23.60
2019-04-11T05:38:46.365Z,23.83
2019-04-11T05:41:13.925Z,17.57
2019-04-11T05:43:41.758Z,13.23
2019-04-11T05:46:23.979Z,16.00
2019-04-11T05:48:45.800Z,15.23
2019-04-11T05:51:13.129Z,14.30
2019-04-11T05:53:41.584Z,14.50
2019-04-11T05:56:09.376Z,16.03
2019-04-11T05:58:42.133Z,17.87
2019-04-11T06:01:11.257Z,24.27
2019-04-11T06:03:40.943Z,20.67
2019-04-11T06:06:20.680Z,21.20
2019-04-11T06:08:49.357Z,19.83
2019-04-11T06:11:21.351Z,22.33
2019-04-11T06:13:49.005Z,24.07
2019-04-11T06:16:16.726Z,26.17
2019-04-11T06:19:00.953Z,25.67
2019-04-11T06:21:29.918Z,22.83
2019-04-11T06:24:16.326Z,25.73
2019-04-11T06:26:45.498Z,25.53
2019-04-11T06:29:21.287Z,26.53
2019-04-11T06:31:51.620Z,23.33
2019-04-11T06:34:19.121Z,19.87
2019-04-11T06:36:55.102Z,18.10
2019-04-11T06:39:31.402Z,17.87
2019-04-11T06:42:10.709Z,18.23
2019-04-11T06:44:42.756Z,19.60
2019-04-11T06:47:24.966Z,21.13
2019-04-11T06:49:55.076Z,21.93
2019-04-11T06:52:24.442Z,21.10
2019-04-11T06:55:08.849Z,20.97
2019-04-11T06:57:38.281Z,19.83
2019-04-11T07:00:11.058Z,20.23
2019-04-11T07:02:41.053Z,23.50
2019-04-11T07:05:10.780Z,21.03
2019-04-11T07:07:40.915Z,19.33
2019-04-11T07:10:09.415Z,19.07
2019-04-11T07:12:41.259Z,22.73
2019-04-11T07:15:10.307Z,27.40
2019-04-11T07:17:56.647Z,23.13
2019-04-11T07:20:44.576Z,21.17
2019-04-11T07:23:30.801Z,25.07
2019-04-11T07:26:05.954Z,23.03
2019-04-11T07:28:41.621Z,20.30
2019-04-11T07:31:21.305Z,19.70
2019-04-11T07:34:08.617Z,19.40
2019-04-11T07:36:55.729Z,19.50
2019-04-11T07:39:24.849Z,18.80
2019-04-11T07:41:53.967Z,18.13
2019-04-11T07:44:23.689Z,19.97
2019-04-11T07:47:13.658Z,17.50
2019-04-11T07:49:38.781Z,16.60
2019-04-11T07:52:11.058Z,14.83
2019-04-11T07:54:38.980Z,15.27
2019-04-11T07:57:08.426Z,16.67
2019-04-11T07:59:49.629Z,17.30
2019-04-11T08:02:24.525Z,16.70
2019-04-11T08:05:06.669Z,16.13
2019-04-11T08:07:38.597Z,19.13
2019-04-11T08:10:24.981Z,18.30
2019-04-11T08:12:54.401Z,16.60
2019-04-11T08:15:41.947Z,15.47
2019-04-11T08:18:16.910Z,15.47
2019-04-11T08:21:02.468Z,15.77
2019-04-11T08:23:40.170Z,15.67
2019-04-11T08:26:26.244Z,16.30
2019-04-11T08:29:05.295Z,15.30
2019-04-11T08:31:42.413Z,15.53
2019-04-11T08:34:11.085Z,16.97
2019-04-11T08:36:49.021Z,16.23
2019-04-11T08:39:17.963Z,16.97
2019-04-11T08:42:03.269Z,15.93
2019-04-11T08:44:32.121Z,14.87
2019-04-11T08:47:02.414Z,16.57
2019-04-11T08:49:32.270Z,15.43
2019-04-11T08:52:03.447Z,15.23
2019-04-11T08:54:50.731Z,16.27
2019-04-11T08:57:20.061Z,17.83
2019-04-11T08:59:51.839Z,17.67
2019-04-11T09:02:20.514Z,19.13
2019-04-11T09:05:11.993Z,18.07
2019-04-11T09:07:38.022Z,17.67
2019-04-11T09:10:24.229Z,15.67
2019-04-11T09:12:53.227Z,14.67
2019-04-11T09:15:35.138Z,14.50
2019-04-11T09:18:06.059Z,15.23
2019-04-11T09:20:50.057Z,17.20
2019-04-11T09:23:17.687Z,16.13
2019-04-11T09:26:03.508Z,14.67
2019-04-11T09:31:35.853Z,17.23
2019-04-11T09:34:05.802Z,17.00
2019-04-11T09:36:38.711Z,14.70
2019-04-11T09:39:21.335Z,15.63
2019-04-11T09:41:56.616Z,14.93
2019-04-11T09:44:25.727Z,15.00
2019-04-11T09:47:11.319Z,14.53
2019-04-11T09:49:57.902Z,14.93
2019-04-11T09:52:27.112Z,15.33
2019-04-11T09:55:01.953Z,18.43
2019-04-11T09:57:30.938Z,18.87
2019-04-11T10:00:10.087Z,19.93
2019-04-11T10:02:39.722Z,18.63
2019-04-11T10:05:16.191Z,20.80
2019-04-11T10:07:57.956Z,17.87
2019-04-11T10:10:33.084Z,17.77
2019-04-11T10:13:18.458Z,16.33
2019-04-11T10:15:57.715Z,18.67
2019-04-11T10:18:40.690Z,16.73
2019-04-11T10:21:09.897Z,16.73
2019-04-11T10:23:38.902Z,17.30
2019-04-11T10:26:07.557Z,18.87
2019-04-11T10:28:37.578Z,20.43
2019-04-11T10:31:06.592Z,19.60
2019-04-11T10:33:44.895Z,18.30
2019-04-11T10:36:16.786Z,17.40
2019-04-11T10:38:44.705Z,17.57
2019-04-11T10:41:26.187Z,18.37
2019-04-11T10:43:53.818Z,19.30
2019-04-11T10:46:23.025Z,19.00
2019-04-11T10:49:09.466Z,17.77
2019-04-11T10:51:47.673Z,16.57
2019-04-11T10:54:15.600Z,16.90
2019-04-11T10:57:01.183Z,18.10
2019-04-11T10:59:30.370Z,19.77
2019-04-11T11:02:02.403Z,18.37
2019-04-11T11:04:37.135Z,17.13
2019-04-11T11:07:06.545Z,17.30
2019-04-11T11:09:44.408Z,18.57
2019-04-11T11:12:32.949Z,17.73
2019-04-11T11:15:07.930Z,18.30
2019-04-11T11:18:27.200Z,17.93
2019-04-11T11:20:41.544Z,18.40
2019-04-11T11:23:25.202Z,18.80
2019-04-11T11:25:56.903Z,16.07
2019-04-11T11:28:28.542Z,17.77
2019-04-11T11:33:46.916Z,17.13
2019-04-11T11:36:35.932Z,14.87
2019-04-11T11:39:08.871Z,15.23
2019-04-11T11:41:54.564Z,12.90
2019-04-11T11:44:24.471Z,14.50
2019-04-11T11:47:10.174Z,12.87
2019-04-11T11:49:48.731Z,15.00
2019-04-11T11:52:26.936Z,19.50
2019-04-11T11:54:55.730Z,15.00
2019-04-11T11:57:24.744Z,14.53
2019-04-11T11:59:53.721Z,14.63
2019-04-11T12:02:23.044Z,14.77
2019-04-11T12:04:52.189Z,17.73
2019-04-11T12:07:25.069Z,14.13
2019-04-11T12:09:56.862Z,14.57
2019-04-11T12:12:42.114Z,12.30
2019-04-11T12:15:28.845Z,13.87
2019-04-11T12:18:06.729Z,13.20
2019-04-11T12:20:54.739Z,12.67
2019-04-11T12:23:48.613Z,14.33
2019-04-11T12:26:12.467Z,15.67
2019-04-11T12:28:41.551Z,12.57
2019-04-11T12:31:10.878Z,12.33
2019-04-11T12:33:49.947Z,13.17
2019-04-11T12:36:19.371Z,13.13
2019-04-11T12:39:05.044Z,11.37
2019-04-11T12:41:50.693Z,11.30
2019-04-11T12:44:22.248Z,14.70
2019-04-11T12:47:08.372Z,13.73
2019-04-11T12:49:40.085Z,14.30
2019-04-11T12:52:25.747Z,13.40
2019-04-11T12:54:55.068Z,12.40
2019-04-11T12:57:40.413Z,11.73
2019-04-11T13:00:18.459Z,11.33
2019-04-11T13:03:03.782Z,9.73
2019-04-11T13:05:32.845Z,11.07
2019-04-11T13:08:10.752Z,11.03
2019-04-11T13:10:40.006Z,10.47
2019-04-11T13:13:14.833Z,11.50
2019-04-11T13:15:46.660Z,11.60
2019-04-11T13:18:32.073Z,12.40
2019-04-11T13:21:01.261Z,11.47
2019-04-11T13:23:42.353Z,11.20
2019-04-11T13:26:23.673Z,9.20
2019-04-11T13:28:55.133Z,9.70
2019-04-11T13:31:40.464Z,10.43
2019-04-11T13:34:15.699Z,11.33
2019-04-11T13:37:01.076Z,10.40
2019-04-11T13:39:28.961Z,10.53
2019-04-11T13:42:06.868Z,10.33
2019-04-11T13:44:34.931Z,11.83
2019-04-11T13:47:13.132Z,11.70
2019-04-11T13:49:45.193Z,10.10
2019-04-11T13:52:14.288Z,9.93
2019-04-11T13:54:49.160Z,11.70
2019-04-11T13:57:24.258Z,11.60
2019-04-11T14:00:09.945Z,11.87
2019-04-11T14:02:55.702Z,13.47
2019-04-11T14:05:23.088Z,13.63
2019-04-11T14:07:52.236Z,10.13
2019-04-11T14:10:21.276Z,9.90
2019-04-11T14:12:48.701Z,9.40
2019-04-11T14:15:22.956Z,11.80
2019-04-11T14:18:06.910Z,14.13
2019-04-11T14:20:45.006Z,13.60
2019-04-11T14:23:25.985Z,11.83
2019-04-11T14:25:55.036Z,12.90
2019-04-11T14:28:26.590Z,11.50
2019-04-11T14:31:10.835Z,11.47
2019-04-11T14:33:56.595Z,12.93
2019-04-11T14:36:43.603Z,9.90
2019-04-11T14:39:12.792Z,8.90
2019-04-11T14:41:59.797Z,9.93
2019-04-11T14:44:28.936Z,10.10
2019-04-11T14:49:48.968Z,11.07
2019-04-11T14:52:36.334Z,10.23
2019-04-11T14:55:04.265Z,8.93
2019-04-11T14:57:33.229Z,8.57
2019-04-11T15:00:02.232Z,9.33
2019-04-11T15:02:48.080Z,8.10
2019-04-11T15:05:19.664Z,7.90
2019-04-11T15:07:47.281Z,7.60
2019-04-11T15:10:19.015Z,8.80
2019-04-11T15:12:48.099Z,8.97
2019-04-11T15:15:32.702Z,8.47
2019-04-11T15:18:01.760Z,8.90
2019-04-11T15:20:34.759Z,8.87
2019-04-11T15:23:06.658Z,9.70
2019-04-11T15:25:51.202Z,10.63
2019-04-11T15:28:30.544Z,12.37
2019-04-11T15:30:59.570Z,11.40
2019-04-11T15:33:44.825Z,9.20
2019-04-11T15:36:23.182Z,10.23
2019-04-11T15:39:01.124Z,11.40
2019-04-11T15:41:30.118Z,11.00
2019-04-11T15:44:15.800Z,10.67
2019-04-11T15:46:43.342Z,10.30
2019-04-11T15:49:31.258Z,13.47
2019-04-11T15:51:59.538Z,11.67
2019-04-11T15:54:31.619Z,11.10
2019-04-11T15:57:00.600Z,10.83
2019-04-11T15:59:38.840Z,12.73
2019-04-11T16:02:16.926Z,12.20
2019-04-11T16:04:48.906Z,13.47
2019-04-11T16:07:37.586Z,16.27
2019-04-11T16:10:05.899Z,15.53
2019-04-11T16:12:37.959Z,15.20
2019-04-11T16:15:23.340Z,14.80
2019-04-11T16:18:19.691Z,14.60
2019-04-11T16:20:51.442Z,15.07
2019-04-11T16:23:26.165Z,15.33
2019-04-11T16:25:54.572Z,14.63
2019-04-11T16:28:39.932Z,14.13
2019-04-11T16:31:09.659Z,14.90
2019-04-11T16:33:40.511Z,13.77
2019-04-11T16:36:09.527Z,13.50
2019-04-11T16:38:46.932Z,14.83
2019-04-11T16:41:32.009Z,13.93
2019-04-11T16:44:09.595Z,13.87
2019-04-11T16:46:41.464Z,12.63
2019-04-11T16:49:08.816Z,14.33
2019-04-11T16:51:36.131Z,15.47
2019-04-11T16:54:03.840Z,15.00
2019-04-11T16:56:31.401Z,15.50
2019-04-11T16:58:58.977Z,12.83
2019-04-11T17:01:26.545Z,13.27
2019-04-11T17:03:55.138Z,13.23
2019-04-11T17:06:41.270Z,13.23
2019-04-11T17:09:10.235Z,15.40
2019-04-11T17:11:37.663Z,14.93
2019-04-11T17:14:05.065Z,16.00
2019-04-11T17:16:32.580Z,15.37
2019-04-11T17:18:59.955Z,16.07
2019-04-11T17:21:27.428Z,18.63
2019-04-11T17:23:54.791Z,16.47
2019-04-11T17:26:23.217Z,19.83
2019-04-11T17:28:53.567Z,17.00
2019-04-11T17:31:25.651Z,16.37
2019-04-11T17:33:51.126Z,14.77
2019-04-11T17:36:18.573Z,15.30
2019-04-11T17:38:46.114Z,16.03
2019-04-11T17:41:13.600Z,16.13
2019-04-11T17:43:42.283Z,14.73
2019-04-11T17:46:10.113Z,15.60
2019-04-11T17:48:37.587Z,16.10
2019-04-11T17:51:05.766Z,16.63
2019-04-11T17:53:33.365Z,17.30
2019-04-11T17:56:00.810Z,16.27
2019-04-11T17:58:28.225Z,15.83
2019-04-11T18:00:57.275Z,16.40
2019-04-11T18:03:24.698Z,16.83
2019-04-11T18:05:52.202Z,17.67
2019-04-11T18:08:20.202Z,20.37
2019-04-11T18:10:48.320Z,21.17
2019-04-11T18:13:15.744Z,19.77
2019-04-11T18:15:43.073Z,19.33
2019-04-11T18:18:10.480Z,17.83
2019-04-11T18:20:37.916Z,18.33
2019-04-11T18:23:05.218Z,17.10
2019-04-11T18:25:32.720Z,16.80
2019-04-11T18:28:00.245Z,17.40
2019-04-11T18:30:27.724Z,17.53
2019-04-11T18:32:55.116Z,20.13
2019-04-11T18:35:22.594Z,18.57
2019-04-11T18:37:50.094Z,22.10
2019-04-11T18:40:17.659Z,24.00
2019-04-11T18:42:45.203Z,24.77
2019-04-11T18:45:12.647Z,21.13
2019-04-11T18:47:40.129Z,20.23
2019-04-11T18:50:07.590Z,18.43
2019-04-11T18:52:35.232Z,16.97
2019-04-11T18:55:03.027Z,18.17
2019-04-11T18:57:30.384Z,18.37
2019-04-11T18:59:57.901Z,19.43
2019-04-11T19:02:25.574Z,18.20
2019-04-11T19:04:53.044Z,17.63
2019-04-11T19:07:27.623Z,17.67
2019-04-11T19:09:49.579Z,15.13
2019-04-11T19:12:17.069Z,17.13
2019-04-11T19:14:45.928Z,17.67
2019-04-11T19:17:15.420Z,16.80
2019-04-11T19:19:42.545Z,15.40
2019-04-11T19:22:09.905Z,15.90
2019-04-11T19:24:37.468Z,16.10
2019-04-11T19:27:04.848Z,15.10
2019-04-11T19:29:32.298Z,15.40
2019-04-11T19:31:59.792Z,14.83
2019-04-11T19:34:27.285Z,14.20
2019-04-11T19:36:54.665Z,14.47
2019-04-11T19:39:23.295Z,14.10
2019-04-11T19:41:50.858Z,14.60
2019-04-11T19:44:19.419Z,14.87
2019-04-11T19:46:48.497Z,15.67
2019-04-11T19:49:16.590Z,13.70
2019-04-11T19:51:44.021Z,12.70
2019-04-11T19:54:11.592Z,14.87
2019-04-11T19:56:46.884Z,12.17
2019-04-11T19:59:14.355Z,14.07
2019-04-11T20:01:41.809Z,15.13
2019-04-11T20:04:09.325Z,13.57
2019-04-11T20:06:36.993Z,13.40
2019-04-11T20:09:05.756Z,13.40
2019-04-11T20:11:33.262Z,13.93
2019-04-11T20:14:02.878Z,13.77
2019-04-11T20:16:40.889Z,12.17
2019-04-11T20:19:00.803Z,12.67
2019-04-11T20:21:27.936Z,11.50
2019-04-11T20:23:55.402Z,11.17
2019-04-11T20:26:22.808Z,10.17
2019-04-11T20:28:50.874Z,11.47
2019-04-11T20:31:19.086Z,9.23
2019-04-11T20:33:46.552Z,10.70
2019-04-11T20:36:14.460Z,10.47
2019-04-11T20:38:44.704Z,10.27
2019-04-11T20:41:11.080Z,10.07
2019-04-11T20:43:38.525Z,9.70
2019-04-11T20:46:05.868Z,9.37
2019-04-11T20:48:35.174Z,10.50
2019-04-11T20:51:02.708Z,10.43
2019-04-11T20:53:30.200Z,9.50
2019-04-11T20:55:57.778Z,9.93
2019-04-11T20:58:27.389Z,10.10
2019-04-11T21:00:55.898Z,11.07
2019-04-11T21:03:23.317Z,10.23
2019-04-11T21:05:50.675Z,11.47
2019-04-11T21:08:18.191Z,11.10
2019-04-11T21:10:45.532Z,10.47
2019-04-11T21:13:13.103Z,10.47
2019-04-11T21:15:40.588Z,9.47
2019-04-11T21:18:08.012Z,9.87
2019-04-11T21:20:35.433Z,11.30
2019-04-11T21:23:02.782Z,9.70
2019-04-11T21:25:30.275Z,9.93
2019-04-11T21:27:59.046Z,10.47
2019-04-11T21:30:27.947Z,11.40
2019-04-11T21:32:55.516Z,11.47
2019-04-11T21:35:22.845Z,10.97
2019-04-11T21:37:50.291Z,10.87
2019-04-11T21:40:17.612Z,10.37
2019-04-11T21:42:45.141Z,10.67
2019-04-11T21:45:12.454Z,9.80
2019-04-11T21:47:39.836Z,10.13
2019-04-11T21:50:09.532Z,10.00
2019-04-11T21:52:36.864Z,10.80
2019-04-11T21:55:04.961Z,9.83
2019-04-11T21:57:32.388Z,11.10
2019-04-11T22:00:01.554Z,10.23
2019-04-11T22:02:28.715Z,10.30
2019-04-11T22:04:58.752Z,10.70
2019-04-11T22:07:25.002Z,10.20
2019-04-11T22:09:52.396Z,10.20
2019-04-11T22:12:19.705Z,11.20
2019-04-11T22:14:47.235Z,11.20
2019-04-11T22:17:15.926Z,10.23
2019-04-11T22:19:45.816Z,10.50
2019-04-11T22:22:12.532Z,10.07
2019-04-11T22:24:39.999Z,10.13
2019-04-11T22:27:07.344Z,10.43
2019-04-11T22:29:34.776Z,10.53
2019-04-11T22:32:02.113Z,9.33
2019-04-11T22:34:31.046Z,11.97
2019-04-11T22:37:00.071Z,11.10
2019-04-11T22:39:29.025Z,10.33
2019-04-11T22:41:56.775Z,11.20
2019-04-11T22:44:24.172Z,10.37
2019-04-11T22:46:51.504Z,10.87
2019-04-11T22:49:18.820Z,10.13
2019-04-11T22:51:46.140Z,10.07
2019-04-11T22:54:13.798Z,10.03
2019-04-11T22:56:41.835Z,9.53
2019-04-11T22:59:13.620Z,10.00
2019-04-11T23:01:38.699Z,9.70
2019-04-11T23:04:06.068Z,10.37
2019-04-11T23:06:33.356Z,8.67
2019-04-11T23:09:00.731Z,8.43
2019-04-11T23:11:28.051Z,9.90
2019-04-11T23:13:55.770Z,9.27
2019-04-11T23:16:23.168Z,9.57
2019-04-11T23:18:50.646Z,9.70
2019-04-11T23:21:18.058Z,9.50
2019-04-11T23:23:45.481Z,8.57
2019-04-11T23:26:13.191Z,10.20
2019-04-11T23:28:40.570Z,8.83
2019-04-11T23:31:08.041Z,7.97
2019-04-11T23:33:35.386Z,10.53
2019-04-11T23:36:02.791Z,10.53
2019-04-11T23:38:30.469Z,9.13
2019-04-11T23:40:57.877Z,10.33
2019-04-11T23:43:25.397Z,9.77
2019-04-11T23:45:52.821Z,12.23
2019-04-11T23:48:23.711Z,13.63
2019-04-11T23:50:49.220Z,9.23
2019-04-11T23:53:16.570Z,10.00
2019-04-11T23:55:43.884Z,12.10
2019-04-11T23:58:11.295Z,9.47
